createdAt,value
2019-01-18T00:01:32.083Z,3.55
2019-01-18T00:04:02.466Z,3.98
2019-01-18T00:06:32.306Z,3.10
2019-01-18T00:09:03.332Z,3.62
2019-01-18T00:11:32.850Z,4.08
2019-01-18T00:14:03.134Z,3.52
2019-01-18T00:16:34.650Z,3.30
2019-01-18T00:19:04.186Z,3.65
2019-01-18T00:21:33.688Z,3.22
2019-01-18T00:24:03.397Z,4.28
2019-01-18T00:26:32.871Z,3.58
2019-01-18T00:29:02.377Z,3.58
2019-01-18T00:31:31.995Z,3.50
2019-01-18T00:34:05.194Z,3.75
2019-01-18T00:36:35.526Z,3.22
2019-01-18T00:39:07.422Z,3.90
2019-01-18T00:41:37.996Z,3.10
2019-01-18T00:44:07.760Z,3.92
2019-01-18T00:46:38.087Z,3.40
2019-01-18T00:49:10.014Z,3.70
2019-01-18T00:51:40.961Z,3.33
2019-01-18T00:54:15.407Z,3.40
2019-01-18T00:56:44.900Z,3.37
2019-01-18T00:59:15.657Z,3.60
2019-01-18T01:01:46.597Z,3.35
2019-01-18T01:04:16.051Z,3.67
2019-01-18T01:06:45.536Z,3.62
2019-01-18T01:09:15.015Z,4.05
2019-01-18T01:11:44.499Z,3.62
2019-01-18T01:14:15.398Z,4.40
2019-01-18T01:16:45.149Z,3.47
2019-01-18T01:19:15.469Z,3.83
2019-01-18T01:21:44.882Z,3.70
2019-01-18T01:24:14.681Z,3.90
2019-01-18T01:26:45.504Z,4.28
2019-01-18T01:29:14.906Z,3.70
2019-01-18T01:31:44.706Z,4.25
2019-01-18T01:34:17.117Z,4.50
2019-01-18T01:36:48.047Z,3.87
2019-01-18T01:39:17.939Z,4.12
2019-01-18T01:41:47.426Z,3.52
2019-01-18T01:44:17.705Z,3.65
2019-01-18T01:46:47.227Z,4.15
2019-01-18T01:49:17.075Z,4.58
2019-01-18T01:51:48.738Z,4.28
2019-01-18T01:54:18.501Z,4.17
2019-01-18T01:56:49.137Z,4.05
2019-01-18T01:59:18.695Z,4.30
2019-01-18T02:01:48.203Z,3.85
2019-01-18T02:04:21.407Z,4.60
2019-01-18T02:06:50.903Z,3.75
2019-01-18T02:09:20.357Z,4.00
2019-01-18T02:11:51.000Z,5.50
2019-01-18T02:14:20.535Z,3.80
2019-01-18T02:16:50.897Z,3.72
2019-01-18T02:19:22.007Z,3.27
2019-01-18T02:21:53.307Z,4.17
2019-01-18T02:24:22.796Z,3.87
2019-01-18T02:26:52.288Z,3.62
2019-01-18T02:29:23.489Z,4.33
2019-01-18T02:31:55.432Z,3.87
2019-01-18T02:34:24.874Z,3.87
2019-01-18T02:36:54.711Z,4.03
2019-01-18T02:39:24.690Z,4.12
2019-01-18T02:41:55.897Z,3.75
2019-01-18T02:44:25.434Z,4.05
2019-01-18T02:46:54.874Z,4.42
2019-01-18T02:49:26.269Z,4.03
2019-01-18T02:51:55.568Z,3.67
2019-01-18T02:54:25.349Z,3.95
2019-01-18T02:56:55.124Z,4.00
2019-01-18T02:59:24.659Z,4.20
2019-01-18T03:01:54.241Z,3.60
2019-01-18T03:04:30.758Z,3.83
2019-01-18T03:07:02.369Z,4.00
2019-01-18T03:09:33.631Z,3.77
2019-01-18T03:12:03.856Z,3.83
2019-01-18T03:14:33.560Z,3.70
2019-01-18T03:17:04.630Z,3.90
2019-01-18T03:19:35.837Z,3.40
2019-01-18T03:22:05.686Z,3.85
2019-01-18T03:24:38.659Z,3.35
2019-01-18T03:27:09.227Z,3.00
2019-01-18T03:29:38.681Z,3.17
2019-01-18T03:32:08.202Z,3.52
2019-01-18T03:34:37.675Z,3.25
2019-01-18T03:37:07.171Z,3.87
2019-01-18T03:39:38.539Z,3.60
2019-01-18T03:42:10.599Z,3.25
2019-01-18T03:44:40.137Z,3.27
2019-01-18T03:47:09.758Z,2.95
2019-01-18T03:49:42.278Z,3.05
2019-01-18T03:52:13.534Z,3.37
2019-01-18T03:54:43.031Z,3.95
2019-01-18T03:57:13.704Z,4.42
2019-01-18T03:59:46.114Z,4.22
2019-01-18T04:02:15.615Z,3.62
2019-01-18T04:04:46.660Z,3.80
2019-01-18T04:07:16.411Z,3.47
2019-01-18T04:09:46.248Z,3.55
2019-01-18T04:12:16.060Z,3.95
2019-01-18T04:14:48.275Z,3.72
2019-01-18T04:17:19.182Z,3.25
2019-01-18T04:19:50.504Z,3.65
2019-01-18T04:22:20.267Z,4.08
2019-01-18T04:24:52.670Z,4.22
2019-01-18T04:27:23.360Z,4.25
2019-01-18T04:29:52.854Z,3.83
2019-01-18T04:32:22.915Z,3.75
2019-01-18T04:34:54.313Z,4.20
2019-01-18T04:37:26.706Z,4.20
2019-01-18T04:39:56.995Z,3.85
2019-01-18T04:42:27.901Z,3.90
2019-01-18T04:44:59.670Z,3.20
2019-01-18T04:47:31.681Z,3.72
2019-01-18T04:50:01.470Z,3.70
2019-01-18T04:52:30.954Z,3.70
2019-01-18T04:55:00.773Z,3.98
2019-01-18T04:57:30.270Z,4.62
2019-01-18T04:59:59.691Z,3.55
2019-01-18T05:02:29.818Z,3.30
2019-01-18T05:04:59.639Z,5.30
2019-01-18T05:07:31.563Z,4.47
2019-01-18T05:10:02.527Z,4.40
2019-01-18T05:12:34.087Z,4.30
2019-01-18T05:15:06.284Z,3.65
2019-01-18T05:17:35.942Z,4.22
2019-01-18T05:20:06.070Z,4.10
2019-01-18T05:22:36.372Z,5.10
2019-01-18T05:25:08.380Z,4.22
2019-01-18T05:27:40.130Z,4.45
2019-01-18T05:30:29.778Z,3.70
2019-01-18T05:32:59.487Z,4.12
2019-01-18T05:35:31.640Z,3.83
2019-01-18T05:38:01.461Z,4.05
2019-01-18T05:40:33.706Z,4.28
2019-01-18T05:43:03.461Z,4.47
2019-01-18T05:45:35.549Z,3.80
2019-01-18T05:48:04.908Z,3.95
2019-01-18T05:50:34.395Z,3.75
2019-01-18T05:53:06.795Z,3.90
2019-01-18T05:55:36.253Z,4.45
2019-01-18T05:58:05.748Z,4.80
2019-01-18T06:00:54.950Z,3.40
2019-01-18T06:03:19.527Z,3.70
2019-01-18T06:05:49.143Z,4.05
2019-01-18T06:08:18.632Z,3.50
2019-01-18T06:10:48.097Z,4.30
2019-01-18T06:13:22.087Z,4.97
2019-01-18T06:15:51.888Z,5.17
2019-01-18T06:18:24.910Z,5.17
2019-01-18T06:20:54.411Z,5.20
2019-01-18T06:23:23.887Z,5.17
2019-01-18T06:25:53.328Z,4.83
2019-01-18T06:28:23.214Z,5.30
2019-01-18T06:30:53.852Z,5.00
2019-01-18T06:33:23.522Z,5.00
2019-01-18T06:35:54.142Z,5.62
2019-01-18T06:38:23.614Z,6.00
2019-01-18T06:40:54.495Z,5.55
2019-01-18T06:43:26.762Z,6.35
2019-01-18T06:45:57.407Z,7.75
2019-01-18T06:48:28.798Z,5.05
2019-01-18T06:51:00.024Z,5.20
2019-01-18T06:53:29.539Z,5.35
2019-01-18T06:55:59.022Z,5.12
2019-01-18T06:58:28.528Z,5.42
2019-01-18T07:00:59.725Z,5.20
2019-01-18T07:03:31.077Z,5.67
2019-01-18T07:06:00.536Z,5.40
2019-01-18T07:08:30.270Z,5.85
2019-01-18T07:10:59.767Z,7.78
2019-01-18T07:13:29.406Z,5.00
2019-01-18T07:16:01.180Z,4.67
2019-01-18T07:18:30.729Z,12.55
2019-01-18T07:21:01.314Z,4.12
2019-01-18T07:23:31.084Z,5.12
2019-01-18T07:26:00.562Z,5.28
2019-01-18T07:28:30.054Z,5.12
2019-01-18T07:30:59.495Z,4.40
2019-01-18T07:33:29.011Z,3.67
2019-01-18T07:35:59.595Z,6.20
2019-01-18T07:38:29.026Z,8.50
2019-01-18T07:40:58.478Z,4.80
2019-01-18T07:43:27.933Z,4.97
2019-01-18T07:45:58.201Z,4.45
2019-01-18T07:48:30.134Z,5.08
2019-01-18T07:51:00.368Z,5.12
2019-01-18T07:53:31.479Z,5.67
2019-01-18T07:56:01.535Z,5.40
2019-01-18T07:58:32.239Z,6.87
2019-01-18T08:01:02.012Z,7.67
2019-01-18T08:03:33.873Z,6.28
2019-01-18T08:06:03.340Z,5.87
2019-01-18T08:08:33.497Z,7.17
2019-01-18T08:11:04.114Z,19.30
2019-01-18T08:13:34.527Z,8.68
2019-01-18T08:16:04.071Z,23.02
2019-01-18T08:18:50.091Z,16.62
2019-01-18T08:21:19.547Z,8.55
2019-01-18T08:23:49.014Z,7.28
2019-01-18T08:26:18.458Z,7.00
2019-01-18T08:28:48.632Z,7.70
2019-01-18T08:31:18.267Z,6.97
2019-01-18T08:33:47.729Z,11.22
2019-01-18T08:36:17.361Z,8.58
2019-01-18T08:38:46.793Z,9.23
2019-01-18T08:41:16.228Z,6.87
2019-01-18T08:43:45.683Z,7.15
2019-01-18T08:46:16.414Z,6.67
2019-01-18T08:48:45.872Z,7.10
2019-01-18T08:51:15.825Z,6.78
2019-01-18T08:53:45.246Z,7.55
2019-01-18T08:56:16.670Z,9.03
2019-01-18T08:58:46.495Z,7.55
2019-01-18T09:01:19.420Z,9.25
2019-01-18T09:03:49.202Z,9.30
2019-01-18T09:06:18.625Z,8.03
2019-01-18T09:08:48.045Z,8.30
2019-01-18T09:11:17.540Z,9.33
2019-01-18T09:13:47.248Z,8.05
2019-01-18T09:16:16.721Z,9.55
2019-01-18T09:18:46.525Z,7.85
2019-01-18T09:21:16.546Z,8.40
2019-01-18T09:23:46.067Z,6.80
2019-01-18T09:26:15.568Z,7.60
2019-01-18T09:28:45.309Z,7.72
2019-01-18T09:31:16.390Z,7.67
2019-01-18T09:33:47.457Z,7.90
2019-01-18T09:36:17.373Z,6.55
2019-01-18T09:38:46.917Z,7.55
2019-01-18T09:41:16.451Z,8.50
2019-01-18T09:43:45.757Z,8.00
2019-01-18T09:46:15.735Z,7.00
2019-01-18T09:48:45.169Z,8.05
2019-01-18T09:51:14.620Z,7.78
2019-01-18T09:53:44.048Z,7.70
2019-01-18T09:56:25.259Z,9.43
2019-01-18T09:58:54.696Z,8.73
2019-01-18T10:01:55.389Z,7.72
2019-01-18T10:04:25.254Z,7.67
2019-01-18T10:06:55.625Z,9.55
2019-01-18T10:09:25.054Z,9.18
2019-01-18T10:12:15.022Z,11.15
2019-01-18T10:14:45.035Z,13.25
2019-01-18T10:17:14.510Z,9.80
2019-01-18T10:19:44.617Z,9.20
2019-01-18T10:22:15.252Z,9.90
2019-01-18T10:24:44.817Z,9.98
2019-01-18T10:27:14.260Z,9.33
2019-01-18T10:29:43.865Z,12.45
2019-01-18T10:32:13.340Z,10.23
2019-01-18T10:34:42.754Z,9.15
2019-01-18T10:37:12.916Z,8.90
2019-01-18T10:39:42.549Z,9.03
2019-01-18T10:42:12.233Z,9.58
2019-01-18T10:44:42.224Z,8.00
2019-01-18T10:47:11.910Z,8.90
2019-01-18T10:49:41.739Z,9.50
2019-01-18T10:52:11.237Z,8.00
2019-01-18T10:54:40.684Z,7.78
2019-01-18T10:57:10.200Z,7.70
2019-01-18T10:59:39.845Z,7.60
2019-01-18T11:02:09.268Z,7.08
2019-01-18T11:04:38.679Z,6.08
2019-01-18T11:07:08.495Z,5.37
2019-01-18T11:09:38.249Z,6.03
2019-01-18T11:12:07.726Z,6.10
2019-01-18T11:14:38.390Z,6.25
2019-01-18T11:17:10.041Z,6.00
2019-01-18T11:19:39.454Z,6.97
2019-01-18T11:22:08.865Z,7.72
2019-01-18T11:24:38.607Z,11.63
2019-01-18T11:27:08.078Z,12.37
2019-01-18T11:29:37.832Z,13.98
2019-01-18T11:32:13.585Z,9.20
2019-01-18T11:34:40.759Z,7.40
2019-01-18T11:37:10.343Z,6.30
2019-01-18T11:39:39.773Z,7.15
2019-01-18T11:42:09.676Z,7.10
2019-01-18T11:44:39.514Z,8.90
2019-01-18T11:47:09.486Z,11.10
2019-01-18T11:49:38.958Z,9.53
2019-01-18T11:52:09.349Z,8.85
2019-01-18T11:54:38.956Z,7.83
2019-01-18T11:57:10.671Z,8.40
2019-01-18T11:59:43.390Z,15.68
2019-01-18T12:02:16.188Z,10.75
2019-01-18T12:04:47.090Z,8.40
2019-01-18T12:07:17.381Z,8.30
2019-01-18T12:09:46.781Z,7.45
2019-01-18T12:12:16.318Z,8.03
2019-01-18T12:14:46.302Z,8.68
2019-01-18T12:17:19.635Z,7.30
2019-01-18T12:19:49.192Z,7.60
2019-01-18T12:22:21.138Z,6.55
2019-01-18T12:24:51.972Z,5.22
2019-01-18T12:27:21.727Z,6.95
2019-01-18T12:29:51.197Z,7.80
2019-01-18T12:32:20.667Z,5.97
2019-01-18T12:34:50.159Z,6.95
2019-01-18T12:37:19.708Z,5.90
2019-01-18T12:39:49.193Z,5.90
2019-01-18T12:42:19.262Z,7.05
2019-01-18T12:44:48.666Z,4.53
2019-01-18T12:47:18.363Z,5.65
2019-01-18T12:49:49.281Z,7.03
2019-01-18T12:52:20.761Z,4.90
2019-01-18T12:54:52.246Z,7.25
2019-01-18T12:57:21.768Z,5.08
2019-01-18T12:59:51.584Z,4.72
2019-01-18T13:02:21.262Z,4.72
2019-01-18T13:04:51.506Z,5.62
2019-01-18T13:07:26.254Z,6.20
2019-01-18T13:09:55.802Z,5.72
2019-01-18T13:12:26.619Z,10.90
2019-01-18T13:14:57.325Z,7.62
2019-01-18T13:17:28.272Z,6.75
2019-01-18T13:19:57.952Z,7.95
2019-01-18T13:22:27.497Z,8.28
2019-01-18T13:24:57.161Z,7.83
2019-01-18T13:27:27.060Z,7.75
2019-01-18T13:29:57.252Z,6.67
2019-01-18T13:32:26.770Z,6.97
2019-01-18T13:34:56.225Z,6.53
2019-01-18T13:37:25.898Z,5.67
2019-01-18T13:39:59.038Z,5.28
2019-01-18T13:42:29.859Z,6.22
2019-01-18T13:44:59.390Z,6.58
2019-01-18T13:47:28.886Z,6.55
2019-01-18T13:49:58.365Z,6.40
2019-01-18T13:52:28.397Z,5.55
2019-01-18T13:54:57.965Z,6.97
2019-01-18T13:57:28.454Z,5.65
2019-01-18T13:59:57.919Z,7.22
2019-01-18T14:02:27.424Z,5.87
2019-01-18T14:04:58.202Z,5.67
2019-01-18T14:07:27.784Z,5.87
2019-01-18T14:09:57.354Z,6.40
2019-01-18T14:12:26.870Z,5.30
2019-01-18T14:14:57.495Z,4.55
2019-01-18T14:17:26.863Z,5.10
2019-01-18T14:19:56.364Z,4.62
2019-01-18T14:22:25.821Z,3.58
2019-01-18T14:24:55.249Z,4.10
2019-01-18T14:27:24.914Z,3.45
2019-01-18T14:29:54.450Z,3.62
2019-01-18T14:32:23.857Z,4.12
2019-01-18T14:34:53.410Z,4.12
2019-01-18T14:37:23.085Z,3.05
2019-01-18T14:39:52.489Z,2.75
2019-01-18T14:42:22.257Z,3.60
2019-01-18T14:44:54.985Z,3.17
2019-01-18T14:47:24.874Z,5.50
2019-01-18T14:49:55.846Z,3.58
2019-01-18T14:52:25.510Z,3.10
2019-01-18T14:54:55.047Z,3.42
2019-01-18T14:57:25.683Z,3.70
2019-01-18T14:59:55.333Z,3.25
2019-01-18T15:02:24.829Z,3.33
2019-01-18T15:04:54.250Z,3.45
2019-01-18T15:07:23.710Z,2.55
2019-01-18T15:09:53.069Z,3.50
2019-01-18T15:12:22.506Z,3.05
2019-01-18T15:14:54.304Z,3.20
2019-01-18T15:17:25.694Z,3.60
2019-01-18T15:19:55.672Z,2.92
2019-01-18T15:22:25.701Z,3.00
2019-01-18T15:24:57.052Z,4.15
2019-01-18T15:27:26.763Z,3.72
2019-01-18T15:29:56.995Z,3.60
2019-01-18T15:32:26.476Z,3.02
2019-01-18T15:34:55.880Z,2.80
2019-01-18T15:37:25.370Z,3.92
2019-01-18T15:39:54.774Z,3.47
2019-01-18T15:42:24.199Z,2.27
2019-01-18T15:44:53.767Z,2.37
2019-01-18T15:47:23.466Z,3.70
2019-01-18T15:49:52.880Z,4.67
2019-01-18T15:52:22.563Z,3.98
2019-01-18T15:54:52.058Z,3.55
2019-01-18T15:57:21.419Z,4.20
2019-01-18T15:59:51.969Z,4.75
2019-01-18T16:02:21.683Z,4.90
2019-01-18T16:04:51.541Z,6.55
2019-01-18T16:07:21.050Z,5.60
2019-01-18T16:09:52.318Z,4.80
2019-01-18T16:12:23.181Z,4.65
2019-01-18T16:14:53.920Z,5.60
2019-01-18T16:17:29.677Z,5.22
2019-01-18T16:19:59.601Z,4.90
2019-01-18T16:22:29.193Z,5.92
2019-01-18T16:24:59.495Z,4.58
2019-01-18T16:27:31.135Z,5.00
2019-01-18T16:30:02.884Z,6.05
2019-01-18T16:32:32.228Z,7.12
2019-01-18T16:35:02.229Z,5.75
2019-01-18T16:37:32.893Z,7.97
2019-01-18T16:40:04.073Z,6.30
2019-01-18T16:42:36.726Z,4.72
2019-01-18T16:45:06.630Z,5.92
2019-01-18T16:47:36.224Z,5.15
2019-01-18T16:50:07.559Z,5.60
2019-01-18T16:52:37.899Z,6.33
2019-01-18T16:55:11.103Z,6.05
2019-01-18T16:57:40.971Z,9.10
2019-01-18T17:00:17.303Z,8.50
2019-01-18T17:02:47.117Z,8.25
2019-01-18T17:05:16.903Z,6.45
2019-01-18T17:07:47.713Z,7.70
2019-01-18T17:10:17.622Z,6.50
2019-01-18T17:12:47.468Z,8.65
2019-01-18T17:15:18.462Z,7.25
2019-01-18T17:17:50.066Z,6.83
2019-01-18T17:20:23.667Z,8.38
2019-01-18T17:22:53.484Z,10.58
2019-01-18T17:25:24.961Z,9.00
2019-01-18T17:27:54.675Z,8.05
2019-01-18T17:30:29.057Z,11.68
2019-01-18T17:33:00.491Z,10.53
2019-01-18T17:35:39.914Z,7.80
2019-01-18T17:38:37.512Z,8.33
2019-01-18T17:41:19.795Z,13.28
2019-01-18T17:44:22.534Z,9.75
2019-01-18T17:47:36.009Z,10.43
2019-01-18T17:50:33.043Z,8.63
2019-01-18T17:53:23.654Z,8.70
2019-01-18T17:56:47.644Z,8.83
2019-01-18T17:59:42.859Z,12.30
2019-01-18T18:02:42.213Z,11.75
2019-01-18T18:05:35.053Z,8.83
2019-01-18T18:08:22.272Z,7.80
2019-01-18T18:11:36.089Z,8.28
2019-01-18T18:14:17.735Z,8.65
2019-01-18T18:17:25.904Z,7.40
2019-01-18T18:20:35.101Z,8.80
2019-01-18T18:23:32.588Z,9.13
2019-01-18T18:26:56.633Z,9.93
2019-01-18T18:30:13.038Z,9.45
2019-01-18T18:33:17.739Z,12.43
2019-01-18T18:36:05.999Z,11.33
2019-01-18T18:39:11.341Z,9.38
2019-01-18T18:42:29.121Z,10.38
2019-01-18T18:45:38.062Z,11.03
2019-01-18T18:48:30.030Z,10.10
2019-01-18T18:51:51.138Z,12.10
2019-01-18T18:54:54.570Z,12.30
2019-01-18T18:58:13.667Z,13.22
2019-01-18T19:01:26.600Z,9.95
2019-01-18T19:04:46.256Z,10.80
2019-01-18T19:07:49.152Z,9.05
2019-01-18T19:10:49.919Z,8.70
2019-01-18T19:14:14.872Z,9.78
2019-01-18T19:17:09.132Z,9.25
2019-01-18T19:20:13.874Z,9.38
2019-01-18T19:23:04.967Z,9.00
2019-01-18T19:26:35.764Z,9.95
2019-01-18T19:29:52.753Z,9.45
2019-01-18T19:33:00.082Z,9.13
2019-01-18T19:35:57.094Z,9.95
2019-01-18T19:38:55.827Z,9.73
2019-01-18T19:41:42.066Z,11.55
2019-01-18T19:44:51.701Z,11.80
2019-01-18T19:48:04.204Z,11.85
2019-01-18T19:51:24.337Z,10.70
2019-01-18T19:54:40.560Z,12.05
2019-01-18T19:57:53.630Z,11.12
2019-01-18T20:01:20.539Z,11.70
2019-01-18T20:04:04.238Z,10.95
2019-01-18T20:07:34.251Z,12.65
2019-01-18T20:10:33.869Z,13.85
2019-01-18T20:14:06.663Z,15.35
2019-01-18T20:16:56.888Z,16.70
2019-01-18T20:19:46.962Z,16.95
2019-01-18T20:22:44.836Z,13.70
2019-01-18T20:25:45.657Z,12.73
2019-01-18T20:28:42.851Z,13.03
2019-01-18T20:31:40.795Z,16.77
2019-01-18T20:35:03.777Z,19.23
2019-01-18T20:37:59.569Z,18.55
2019-01-18T20:41:04.320Z,17.55
2019-01-18T20:44:26.096Z,15.28
2019-01-18T20:47:10.030Z,16.87
2019-01-18T20:50:29.479Z,14.23
2019-01-18T20:53:25.010Z,11.68
2019-01-18T20:56:29.910Z,12.68
2019-01-18T20:59:14.573Z,12.70
2019-01-18T21:02:22.413Z,13.88
2019-01-18T21:05:17.535Z,10.00
2019-01-18T21:08:29.331Z,12.15
2019-01-18T21:11:41.248Z,12.53
2019-01-18T21:14:54.857Z,12.90
2019-01-18T21:17:53.557Z,13.08
2019-01-18T21:21:09.284Z,12.35
2019-01-18T21:26:28.755Z,12.25
2019-01-18T21:29:43.437Z,12.15
2019-01-18T21:32:39.937Z,12.15
2019-01-18T21:35:25.203Z,12.20
2019-01-18T21:38:53.554Z,11.08
2019-01-18T21:41:58.990Z,10.75
2019-01-18T21:45:08.581Z,10.70
2019-01-18T21:48:21.183Z,10.90
2019-01-18T21:51:29.187Z,12.58
2019-01-18T21:54:34.005Z,10.60
2019-01-18T21:57:39.130Z,11.85
2019-01-18T22:00:49.962Z,10.28
2019-01-18T22:03:26.519Z,10.78
2019-01-18T22:06:36.743Z,9.38
2019-01-18T22:09:36.292Z,10.78
2019-01-18T22:12:59.152Z,12.30
2019-01-18T22:16:16.342Z,10.43
2019-01-18T22:19:30.887Z,10.00
2019-01-18T22:22:33.136Z,11.35
2019-01-18T22:25:42.321Z,10.85
2019-01-18T22:28:36.288Z,9.28
2019-01-18T22:31:32.004Z,9.15
2019-01-18T22:34:22.919Z,9.90
2019-01-18T22:37:18.642Z,9.60
2019-01-18T22:40:23.795Z,9.18
2019-01-18T22:43:16.958Z,10.40
2019-01-18T22:46:10.316Z,9.38
2019-01-18T22:49:05.663Z,9.45
2019-01-18T22:52:22.145Z,10.15
2019-01-18T22:55:29.281Z,10.30
2019-01-18T22:58:51.869Z,9.60
2019-01-18T23:01:42.824Z,10.50
2019-01-18T23:04:57.982Z,9.05
2019-01-18T23:08:17.931Z,9.88
2019-01-18T23:11:12.807Z,9.45
2019-01-18T23:14:24.429Z,8.53
2019-01-18T23:17:26.052Z,7.40
2019-01-18T23:20:36.654Z,9.75
2019-01-18T23:23:43.416Z,9.43
2019-01-18T23:27:09.439Z,9.20
2019-01-18T23:29:46.867Z,8.20
2019-01-18T23:32:51.444Z,9.58
2019-01-18T23:35:47.824Z,9.38
2019-01-18T23:39:08.600Z,9.15
2019-01-18T23:42:07.927Z,9.10
2019-01-18T23:45:13.855Z,9.83
2019-01-18T23:48:36.608Z,10.68
2019-01-18T23:51:47.491Z,9.68
2019-01-18T23:54:49.967Z,8.88
2019-01-18T23:57:58.720Z,9.70
